createdAt,value
2019-04-10T00:01:09.186Z,9.80
2019-04-10T00:03:46.980Z,9.80
2019-04-10T00:06:23.741Z,9.70
2019-04-10T00:08:56.744Z,9.70
2019-04-10T00:11:29.023Z,9.70
2019-04-10T00:13:59.021Z,9.70
2019-04-10T00:16:31.979Z,9.70
2019-04-10T00:19:06.563Z,9.70
2019-04-10T00:21:41.810Z,9.70
2019-04-10T00:24:16.403Z,9.70
2019-04-10T00:26:52.277Z,9.70
2019-04-10T00:29:27.920Z,9.70
2019-04-10T00:32:02.163Z,9.70
2019-04-10T00:34:36.166Z,9.60
2019-04-10T00:37:22.181Z,9.60
2019-04-10T00:39:46.973Z,9.60
2019-04-10T00:42:21.135Z,9.60
2019-04-10T00:44:56.976Z,9.60
2019-04-10T00:47:30.916Z,9.60
2019-04-10T00:50:00.337Z,9.60
2019-04-10T00:52:38.633Z,9.60
2019-04-10T00:55:21.731Z,9.60
2019-04-10T00:57:50.425Z,9.70
2019-04-10T01:00:19.142Z,9.70
2019-04-10T01:02:47.769Z,9.60
2019-04-10T01:05:17.311Z,9.70
2019-04-10T01:07:48.706Z,9.70
2019-04-10T01:10:20.122Z,9.60
2019-04-10T01:12:49.546Z,9.50
2019-04-10T01:15:20.445Z,9.50
2019-04-10T01:17:50.632Z,9.40
2019-04-10T01:20:19.633Z,9.40
2019-04-10T01:22:48.135Z,9.30
2019-04-10T01:25:16.610Z,9.30
2019-04-10T01:27:45.108Z,9.20
2019-04-10T01:30:14.349Z,9.20
2019-04-10T01:32:44.292Z,9.10
2019-04-10T01:35:13.974Z,9.10
2019-04-10T01:37:51.457Z,9.10
2019-04-10T01:40:15.791Z,9.10
2019-04-10T01:42:58.938Z,9.00
2019-04-10T01:45:15.952Z,9.00
2019-04-10T01:47:45.604Z,9.00
2019-04-10T01:50:15.126Z,9.00
2019-04-10T01:52:45.203Z,8.90
2019-04-10T01:55:21.106Z,8.80
2019-04-10T01:57:44.550Z,8.80
2019-04-10T02:00:17.191Z,8.80
2019-04-10T02:02:47.671Z,8.80
2019-04-10T02:05:16.575Z,8.70
2019-04-10T02:07:59.627Z,8.70
2019-04-10T02:10:21.117Z,8.70
2019-04-10T02:12:50.678Z,8.70
2019-04-10T02:15:21.663Z,8.70
2019-04-10T02:17:51.176Z,8.70
2019-04-10T02:20:21.029Z,8.60
2019-04-10T02:22:49.933Z,8.60
2019-04-10T02:25:18.375Z,8.60
2019-04-10T02:27:46.879Z,8.60
2019-04-10T02:30:18.875Z,8.60
2019-04-10T02:32:48.038Z,8.50
2019-04-10T02:35:17.678Z,8.50
2019-04-10T02:37:52.375Z,8.50
2019-04-10T02:40:19.119Z,8.50
2019-04-10T02:42:49.164Z,8.50
2019-04-10T02:45:18.986Z,8.40
2019-04-10T02:47:50.801Z,8.40
2019-04-10T02:50:20.758Z,8.40
2019-04-10T02:52:50.924Z,8.40
2019-04-10T02:55:19.583Z,8.40
2019-04-10T02:57:49.615Z,8.40
2019-04-10T03:00:20.105Z,8.30
2019-04-10T03:02:50.067Z,8.30
2019-04-10T03:05:20.113Z,8.30
2019-04-10T03:07:50.205Z,8.30
2019-04-10T03:10:26.545Z,8.30
2019-04-10T03:12:49.104Z,8.20
2019-04-10T03:15:19.383Z,8.30
2019-04-10T03:17:48.410Z,8.20
2019-04-10T03:20:18.294Z,8.20
2019-04-10T03:22:47.220Z,8.20
2019-04-10T03:25:17.009Z,8.20
2019-04-10T03:27:46.886Z,8.20
2019-04-10T03:30:18.083Z,8.10
2019-04-10T03:32:54.992Z,8.10
2019-04-10T03:35:20.727Z,8.10
2019-04-10T03:37:49.319Z,8.10
2019-04-10T03:40:17.914Z,8.10
2019-04-10T03:42:47.419Z,8.10
2019-04-10T03:45:16.384Z,8.10
2019-04-10T03:47:44.993Z,8.10
2019-04-10T03:50:14.606Z,8.10
2019-04-10T03:52:45.348Z,8.10
2019-04-10T03:55:14.614Z,8.10
2019-04-10T03:57:46.924Z,8.10
2019-04-10T04:00:16.183Z,8.00
2019-04-10T04:02:46.405Z,8.00
2019-04-10T04:05:16.505Z,8.10
2019-04-10T04:07:46.492Z,8.10
2019-04-10T04:10:42.637Z,8.10
2019-04-10T04:13:13.414Z,8.10
2019-04-10T04:15:44.403Z,8.10
2019-04-10T04:18:15.147Z,8.00
2019-04-10T04:20:45.386Z,8.00
2019-04-10T04:23:26.101Z,8.00
2019-04-10T04:25:55.115Z,7.90
2019-04-10T04:28:23.739Z,7.90
2019-04-10T04:30:53.784Z,7.90
2019-04-10T04:33:23.237Z,7.90
2019-04-10T04:35:53.101Z,7.90
2019-04-10T04:38:21.724Z,7.90
2019-04-10T04:40:51.300Z,7.90
2019-04-10T04:43:21.665Z,7.90
2019-04-10T04:45:50.716Z,7.90
2019-04-10T04:48:19.977Z,8.00
2019-04-10T04:50:48.421Z,8.00
2019-04-10T04:53:16.851Z,8.00
2019-04-10T04:55:46.970Z,8.00
2019-04-10T04:58:15.594Z,8.00
2019-04-10T05:00:45.934Z,8.00
2019-04-10T05:03:16.341Z,8.00
2019-04-10T05:05:45.973Z,8.00
2019-04-10T05:08:15.298Z,7.90
2019-04-10T05:10:45.324Z,7.90
2019-04-10T05:13:14.448Z,7.90
2019-04-10T05:15:44.933Z,7.90
2019-04-10T05:18:14.720Z,7.90
2019-04-10T05:20:49.720Z,7.90
2019-04-10T05:23:16.316Z,7.90
2019-04-10T05:25:46.193Z,7.90
2019-04-10T05:28:15.413Z,7.90
2019-04-10T05:30:45.564Z,7.90
2019-04-10T05:33:16.193Z,7.90
2019-04-10T05:35:45.352Z,7.90
2019-04-10T05:38:15.047Z,7.90
2019-04-10T05:40:45.592Z,7.90
2019-04-10T05:43:15.653Z,7.90
2019-04-10T05:45:45.201Z,7.90
2019-04-10T05:48:16.131Z,7.90
2019-04-10T05:50:54.069Z,7.90
2019-04-10T05:53:26.885Z,7.80
2019-04-10T05:55:58.686Z,7.90
2019-04-10T05:58:33.947Z,7.80
2019-04-10T06:01:05.368Z,7.90
2019-04-10T06:03:39.335Z,7.90
2019-04-10T06:06:16.676Z,7.90
2019-04-10T06:08:45.256Z,7.90
2019-04-10T06:11:15.175Z,7.90
2019-04-10T06:13:45.426Z,7.90
2019-04-10T06:16:30.568Z,7.90
2019-04-10T06:19:15.896Z,7.90
2019-04-10T06:21:46.289Z,7.90
2019-04-10T06:24:16.294Z,7.90
2019-04-10T06:26:45.904Z,7.80
2019-04-10T06:29:15.643Z,7.80
2019-04-10T06:31:45.265Z,7.80
2019-04-10T06:34:18.299Z,7.80
2019-04-10T06:36:45.932Z,7.80
2019-04-10T06:39:14.766Z,7.80
2019-04-10T06:41:44.676Z,7.80
2019-04-10T06:44:14.887Z,7.80
2019-04-10T06:46:44.491Z,7.80
2019-04-10T06:49:16.373Z,7.80
2019-04-10T06:51:45.530Z,7.90
2019-04-10T06:54:16.448Z,7.90
2019-04-10T06:56:48.289Z,8.00
2019-04-10T06:59:16.292Z,8.00
2019-04-10T07:01:51.001Z,8.00
2019-04-10T07:04:21.021Z,8.10
2019-04-10T07:06:57.334Z,8.20
2019-04-10T07:09:21.370Z,8.10
2019-04-10T07:11:55.563Z,8.20
2019-04-10T07:14:21.095Z,8.20
2019-04-10T07:16:50.641Z,8.10
2019-04-10T07:19:19.851Z,8.20
2019-04-10T07:21:49.143Z,8.20
2019-04-10T07:24:18.805Z,8.20
2019-04-10T07:26:49.015Z,8.20
2019-04-10T07:29:21.030Z,8.20
2019-04-10T07:31:48.570Z,8.20
2019-04-10T07:34:20.044Z,8.30
2019-04-10T07:36:47.845Z,8.20
2019-04-10T07:39:17.258Z,8.20
2019-04-10T07:41:47.265Z,8.20
2019-04-10T07:44:16.520Z,8.20
2019-04-10T07:46:46.530Z,8.20
2019-04-10T07:49:18.309Z,8.20
2019-04-10T07:51:47.685Z,8.20
2019-04-10T07:54:20.190Z,8.20
2019-04-10T07:56:47.238Z,8.20
2019-04-10T07:59:16.366Z,8.30
2019-04-10T08:04:35.746Z,8.30
2019-04-10T08:07:29.499Z,8.30
2019-04-10T08:09:54.139Z,8.30
2019-04-10T08:12:23.298Z,8.30
2019-04-10T08:14:52.031Z,8.30
2019-04-10T08:17:21.628Z,8.30
2019-04-10T08:19:50.943Z,8.30
2019-04-10T08:22:20.173Z,8.30
2019-04-10T08:24:49.153Z,8.30
2019-04-10T08:27:17.654Z,8.20
2019-04-10T08:29:46.264Z,8.20
2019-04-10T08:32:15.974Z,8.20
2019-04-10T08:34:44.986Z,8.20
2019-04-10T08:37:24.172Z,8.20
2019-04-10T08:39:53.040Z,8.20
2019-04-10T08:42:22.417Z,8.30
2019-04-10T08:44:52.081Z,8.40
2019-04-10T08:47:20.802Z,8.40
2019-04-10T08:49:49.534Z,8.50
2019-04-10T08:52:17.967Z,8.60
2019-04-10T08:54:46.463Z,8.60
2019-04-10T08:57:39.847Z,8.50
2019-04-10T09:00:18.616Z,8.50
2019-04-10T09:02:48.496Z,8.50
2019-04-10T09:05:17.509Z,8.50
2019-04-10T09:07:46.443Z,8.50
2019-04-10T09:10:16.407Z,8.50
2019-04-10T09:12:47.237Z,8.60
2019-04-10T09:15:16.043Z,8.50
2019-04-10T09:17:45.202Z,8.50
2019-04-10T09:20:16.338Z,8.60
2019-04-10T09:23:11.817Z,8.70
2019-04-10T09:25:17.484Z,8.70
2019-04-10T09:28:06.352Z,8.70
2019-04-10T09:30:35.364Z,8.70
2019-04-10T09:33:16.003Z,8.80
2019-04-10T09:35:34.492Z,8.90
2019-04-10T09:38:04.160Z,9.00
2019-04-10T09:40:32.754Z,9.20
2019-04-10T09:43:01.190Z,9.30
2019-04-10T09:45:30.621Z,9.40
2019-04-10T09:47:59.997Z,9.50
2019-04-10T09:50:28.547Z,9.50
2019-04-10T09:52:57.078Z,9.60
2019-04-10T09:55:25.515Z,9.70
2019-04-10T09:57:54.978Z,9.70
2019-04-10T10:03:17.374Z,9.80
2019-04-10T10:05:46.664Z,10.00
2019-04-10T10:08:16.470Z,10.00
2019-04-10T10:10:45.195Z,9.70
2019-04-10T10:13:43.727Z,9.60
2019-04-10T10:16:14.957Z,9.70
2019-04-10T10:19:01.656Z,9.60
2019-04-10T10:21:35.205Z,9.60
2019-04-10T10:24:11.962Z,9.40
2019-04-10T10:26:46.513Z,9.40
2019-04-10T10:29:15.287Z,9.20
2019-04-10T10:31:45.063Z,9.20
2019-04-10T10:34:16.353Z,9.10
2019-04-10T10:36:47.632Z,9.00
2019-04-10T10:39:18.999Z,8.90
2019-04-10T10:41:48.980Z,9.00
2019-04-10T10:44:17.460Z,9.10
2019-04-10T10:46:45.973Z,9.20
2019-04-10T10:49:15.950Z,9.40
2019-04-10T10:51:46.730Z,9.50
2019-04-10T10:54:16.768Z,9.60
2019-04-10T10:57:04.927Z,9.60
2019-04-10T10:59:33.598Z,9.80
2019-04-10T11:02:02.422Z,9.90
2019-04-10T11:04:31.575Z,9.80
2019-04-10T11:07:01.205Z,9.90
2019-04-10T11:09:30.194Z,10.10
2019-04-10T11:11:59.887Z,10.10
2019-04-10T11:14:29.815Z,10.40
2019-04-10T11:16:58.742Z,10.70
2019-04-10T11:19:27.221Z,10.70
2019-04-10T11:21:56.881Z,10.60
2019-04-10T11:24:26.742Z,10.50
2019-04-10T11:26:55.255Z,10.40
2019-04-10T11:29:23.800Z,10.70
2019-04-10T11:31:53.629Z,11.00
2019-04-10T11:34:22.657Z,11.00
2019-04-10T11:37:14.233Z,11.10
2019-04-10T11:39:26.108Z,11.10
2019-04-10T11:41:52.724Z,11.10
2019-04-10T11:44:21.651Z,11.10
2019-04-10T11:46:52.585Z,10.90
2019-04-10T11:49:22.918Z,10.90
2019-04-10T11:51:53.643Z,10.80
2019-04-10T11:54:25.018Z,10.80
2019-04-10T11:56:53.386Z,11.00
2019-04-10T11:59:23.720Z,10.90
2019-04-10T12:01:57.104Z,11.10
2019-04-10T12:04:23.232Z,11.30
2019-04-10T12:06:54.059Z,11.20
2019-04-10T12:10:06.535Z,11.20
2019-04-10T12:11:53.075Z,11.20
2019-04-10T12:14:21.705Z,11.40
2019-04-10T12:16:50.152Z,11.50
2019-04-10T12:19:19.307Z,11.60
2019-04-10T12:21:48.724Z,11.80
2019-04-10T12:24:18.300Z,12.00
2019-04-10T12:26:47.846Z,12.10
2019-04-10T12:29:16.602Z,11.70
2019-04-10T12:31:45.079Z,11.30
2019-04-10T12:34:14.931Z,11.20
2019-04-10T12:36:44.808Z,11.00
2019-04-10T12:39:14.136Z,10.70
2019-04-10T12:41:43.596Z,10.70
2019-04-10T12:44:12.161Z,10.60
2019-04-10T12:46:41.540Z,10.50
2019-04-10T12:49:10.068Z,10.70
2019-04-10T12:51:38.650Z,10.90
2019-04-10T12:54:07.899Z,11.00
2019-04-10T12:56:36.547Z,11.10
2019-04-10T12:59:05.054Z,11.10
2019-04-10T13:01:33.472Z,11.20
2019-04-10T13:04:01.924Z,11.20
2019-04-10T13:06:30.351Z,11.30
2019-04-10T13:12:05.250Z,11.60
2019-04-10T13:14:43.714Z,11.70
2019-04-10T13:17:16.502Z,11.80
2019-04-10T13:19:45.223Z,12.00
2019-04-10T13:22:15.923Z,11.90
2019-04-10T13:24:45.903Z,11.70
2019-04-10T13:27:16.707Z,11.70
2019-04-10T13:29:46.708Z,11.80
2019-04-10T13:32:16.743Z,11.70
2019-04-10T13:34:45.920Z,11.50
2019-04-10T13:37:15.963Z,11.50
2019-04-10T13:39:46.872Z,11.50
2019-04-10T13:42:16.871Z,11.60
2019-04-10T13:44:45.467Z,11.70
2019-04-10T13:47:15.497Z,11.80
2019-04-10T13:50:13.274Z,12.00
2019-04-10T13:55:44.473Z,11.90
2019-04-10T13:58:15.051Z,12.00
2019-04-10T14:00:45.080Z,11.80
2019-04-10T14:03:16.560Z,11.70
2019-04-10T14:06:13.667Z,11.70
2019-04-10T14:09:04.415Z,11.80
2019-04-10T14:11:15.641Z,11.90
2019-04-10T14:13:46.166Z,11.90
2019-04-10T14:16:23.208Z,11.90
2019-04-10T14:18:52.884Z,12.10
2019-04-10T14:21:21.746Z,12.20
2019-04-10T14:23:51.350Z,12.20
2019-04-10T14:26:22.476Z,12.10
2019-04-10T14:28:51.441Z,12.00
2019-04-10T14:44:26.951Z,11.60
2019-04-10T14:46:55.391Z,11.50
2019-04-10T14:49:24.889Z,11.50
2019-04-10T14:51:54.488Z,11.60
2019-04-10T14:54:23.853Z,11.50
2019-04-10T14:56:52.657Z,11.40
2019-04-10T14:59:22.715Z,11.30
2019-04-10T15:01:51.263Z,11.30
2019-04-10T15:04:21.257Z,11.40
2019-04-10T15:06:50.067Z,11.40
2019-04-10T15:09:25.669Z,11.40
2019-04-10T15:12:26.217Z,11.20
2019-04-10T15:14:56.157Z,11.30
2019-04-10T15:17:25.506Z,11.20
2019-04-10T15:19:54.017Z,11.20
2019-04-10T15:22:23.523Z,11.20
2019-04-10T15:24:52.017Z,11.30
2019-04-10T15:27:21.466Z,11.20
2019-04-10T15:29:50.176Z,11.10
2019-04-10T15:32:18.661Z,11.20
2019-04-10T15:34:48.262Z,11.20
2019-04-10T15:37:20.727Z,11.10
2019-04-10T15:39:49.725Z,11.10
2019-04-10T15:42:18.309Z,11.10
2019-04-10T15:44:46.724Z,11.10
2019-04-10T15:47:20.850Z,11.10
2019-04-10T15:49:46.062Z,11.10
2019-04-10T15:52:15.041Z,11.00
2019-04-10T15:54:44.124Z,10.90
2019-04-10T15:57:28.951Z,10.90
2019-04-10T16:00:16.963Z,10.90
2019-04-10T16:02:46.832Z,10.90
2019-04-10T16:05:19.478Z,10.90
2019-04-10T16:07:49.001Z,10.90
2019-04-10T16:10:29.305Z,10.90
2019-04-10T16:13:16.610Z,10.90
2019-04-10T16:15:45.693Z,10.90
2019-04-10T16:18:16.785Z,10.90
2019-04-10T16:20:47.473Z,10.90
2019-04-10T16:23:18.465Z,10.80
2019-04-10T16:25:48.662Z,10.80
2019-04-10T16:28:17.939Z,10.80
2019-04-10T16:30:46.655Z,10.70
2019-04-10T16:33:16.869Z,10.70
2019-04-10T16:35:46.236Z,10.70
2019-04-10T16:38:14.964Z,10.70
2019-04-10T16:40:44.013Z,10.70
2019-04-10T16:43:14.529Z,10.70
2019-04-10T16:45:45.167Z,10.70
2019-04-10T16:48:15.140Z,10.70
2019-04-10T16:50:44.275Z,10.70
2019-04-10T16:53:18.637Z,10.70
2019-04-10T16:55:47.176Z,10.60
2019-04-10T16:58:15.988Z,10.60
2019-04-10T17:00:45.922Z,10.60
2019-04-10T17:03:15.634Z,10.60
2019-04-10T17:05:45.936Z,10.50
2019-04-10T17:08:21.761Z,10.50
2019-04-10T17:10:50.594Z,10.40
2019-04-10T17:13:19.326Z,10.40
2019-04-10T17:15:48.969Z,10.40
2019-04-10T17:18:19.123Z,10.40
2019-04-10T17:20:48.773Z,10.50
2019-04-10T17:23:18.416Z,10.40
2019-04-10T17:25:47.048Z,10.40
2019-04-10T17:28:16.456Z,10.40
2019-04-10T17:30:46.135Z,10.40
2019-04-10T17:33:16.595Z,10.40
2019-04-10T17:35:45.565Z,10.40
2019-04-10T17:38:16.200Z,10.40
2019-04-10T17:40:50.653Z,10.40
2019-04-10T17:43:16.994Z,10.40
2019-04-10T17:45:45.432Z,10.40
2019-04-10T17:48:15.736Z,10.40
2019-04-10T17:50:45.711Z,10.40
2019-04-10T17:53:17.158Z,10.40
2019-04-10T17:58:48.093Z,10.40
2019-04-10T18:01:18.875Z,10.30
2019-04-10T18:03:52.153Z,10.30
2019-04-10T18:06:17.635Z,10.30
2019-04-10T18:08:47.185Z,10.30
2019-04-10T18:11:16.254Z,10.30
2019-04-10T18:13:46.848Z,10.30
2019-04-10T18:16:44.197Z,10.20
2019-04-10T18:19:15.520Z,10.10
2019-04-10T18:21:45.922Z,10.10
2019-04-10T18:24:15.767Z,10.00
2019-04-10T18:26:45.035Z,9.90
2019-04-10T18:29:14.895Z,9.90
2019-04-10T18:31:45.300Z,9.90
2019-04-10T18:34:15.418Z,9.80
2019-04-10T18:36:47.197Z,9.80
2019-04-10T18:39:18.534Z,9.80
2019-04-10T18:41:47.233Z,9.90
2019-04-10T18:44:17.068Z,9.90
2019-04-10T18:46:46.753Z,9.90
2019-04-10T18:49:16.124Z,9.90
2019-04-10T18:51:45.927Z,9.90
2019-04-10T18:54:14.889Z,9.80
2019-04-10T18:56:45.132Z,9.80
2019-04-10T18:59:36.472Z,9.80
2019-04-10T19:02:29.909Z,9.80
2019-04-10T19:05:07.555Z,9.80
2019-04-10T19:07:40.941Z,9.70
2019-04-10T19:10:24.245Z,9.60
2019-04-10T19:12:53.104Z,9.60
2019-04-10T19:15:22.439Z,9.60
2019-04-10T19:17:51.020Z,9.70
2019-04-10T19:20:19.784Z,9.80
2019-04-10T19:22:48.670Z,9.80
2019-04-10T19:25:17.276Z,9.90
2019-04-10T19:27:46.547Z,10.00
2019-04-10T19:30:17.745Z,10.00
2019-04-10T19:32:46.193Z,10.00
2019-04-10T19:35:15.108Z,10.10
2019-04-10T19:37:45.808Z,10.10
2019-04-10T19:40:15.915Z,10.10
2019-04-10T19:42:45.885Z,10.10
2019-04-10T19:45:17.389Z,10.10
2019-04-10T19:47:46.358Z,10.10
2019-04-10T19:50:15.347Z,10.10
2019-04-10T19:52:45.253Z,10.10
2019-04-10T19:55:15.611Z,10.10
2019-04-10T19:57:45.718Z,10.10
2019-04-10T20:00:16.582Z,10.10
2019-04-10T20:02:45.520Z,10.20
2019-04-10T20:05:14.997Z,10.20
2019-04-10T20:07:48.939Z,10.10
2019-04-10T20:10:17.736Z,10.00
2019-04-10T20:12:46.182Z,9.90
2019-04-10T20:15:14.889Z,9.90
2019-04-10T20:17:54.622Z,9.90
2019-04-10T20:20:23.560Z,9.80
2019-04-10T20:22:52.031Z,9.80
2019-04-10T20:25:20.479Z,9.70
2019-04-10T20:27:50.112Z,9.70
2019-04-10T20:30:20.541Z,9.70
2019-04-10T20:32:50.152Z,9.70
2019-04-10T20:35:18.773Z,9.60
2019-04-10T20:37:47.200Z,9.60
2019-04-10T20:40:15.923Z,9.60
2019-04-10T20:42:45.063Z,9.50
2019-04-10T20:45:15.756Z,9.50
2019-04-10T20:47:45.044Z,9.50
2019-04-10T20:50:13.779Z,9.40
2019-04-10T20:52:45.207Z,9.40
2019-04-10T20:55:15.382Z,9.40
2019-04-10T20:57:46.008Z,9.40
2019-04-10T21:00:18.199Z,9.40
2019-04-10T21:02:46.821Z,9.30
2019-04-10T21:05:16.438Z,9.30
2019-04-10T21:07:45.974Z,9.30
2019-04-10T21:10:15.225Z,9.20
2019-04-10T21:12:45.574Z,9.20
2019-04-10T21:15:15.414Z,9.20
2019-04-10T21:17:44.412Z,9.10
2019-04-10T21:20:18.648Z,9.10
2019-04-10T21:22:47.278Z,9.00
2019-04-10T21:25:16.941Z,9.00
2019-04-10T21:27:48.785Z,8.90
2019-04-10T21:30:24.230Z,8.90
2019-04-10T21:33:10.758Z,8.80
2019-04-10T21:35:44.056Z,8.70
2019-04-10T21:38:15.139Z,8.60
2019-04-10T21:40:50.166Z,8.60
2019-04-10T21:43:20.267Z,8.50
2019-04-10T21:45:49.701Z,8.40
2019-04-10T21:48:18.874Z,8.30
2019-04-10T21:50:47.484Z,8.20
2019-04-10T21:53:16.472Z,8.20
2019-04-10T21:55:45.892Z,8.10
2019-04-10T21:58:16.427Z,8.10
2019-04-10T22:00:52.877Z,8.00
2019-04-10T22:03:22.119Z,8.00
2019-04-10T22:06:07.169Z,7.90
2019-04-10T22:08:42.858Z,7.80
2019-04-10T22:11:13.501Z,7.80
2019-04-10T22:13:44.895Z,7.70
2019-04-10T22:16:15.213Z,7.70
2019-04-10T22:18:44.209Z,7.60
2019-04-10T22:21:14.492Z,7.60
2019-04-10T22:23:45.186Z,7.60
2019-04-10T22:26:14.153Z,7.50
2019-04-10T22:28:49.446Z,7.40
2019-04-10T22:31:18.209Z,7.40
2019-04-10T22:33:46.864Z,7.40
2019-04-10T22:36:15.336Z,7.30
2019-04-10T22:38:46.151Z,7.30
2019-04-10T22:41:24.573Z,7.20
2019-04-10T22:43:46.782Z,7.20
2019-04-10T22:46:15.532Z,7.10
2019-04-10T22:48:45.732Z,7.10
2019-04-10T22:51:15.135Z,7.00
2019-04-10T22:53:45.862Z,6.90
2019-04-10T22:56:15.019Z,6.90
2019-04-10T22:58:45.616Z,6.80
2019-04-10T23:01:15.373Z,6.80
2019-04-10T23:04:15.297Z,6.70
2019-04-10T23:07:15.200Z,6.70
2019-04-10T23:09:44.671Z,6.60
2019-04-10T23:12:14.664Z,6.50
2019-04-10T23:14:44.919Z,6.50
2019-04-10T23:17:16.592Z,6.50
2019-04-10T23:19:46.756Z,6.50
2019-04-10T23:22:16.626Z,6.50
2019-04-10T23:24:46.118Z,6.40
2019-04-10T23:27:14.850Z,6.30
2019-04-10T23:29:44.987Z,6.30
2019-04-10T23:32:15.248Z,6.20
2019-04-10T23:34:45.126Z,6.20
2019-04-10T23:37:15.018Z,6.20
2019-04-10T23:39:46.137Z,6.20
2019-04-10T23:42:15.380Z,6.20
2019-04-10T23:44:45.637Z,6.10
2019-04-10T23:47:14.648Z,6.10
2019-04-10T23:49:44.340Z,6.00
2019-04-10T23:52:15.812Z,6.00
2019-04-10T23:54:45.795Z,5.90
2019-04-10T23:57:15.086Z,5.90
2019-04-10T23:59:46.809Z,5.80
